sensor_id;sensor_type;location;lat;lon;timestamp;temperature;humidity
19031;DHT22;9648;51.130;13.978;2023-03-22T00:01:08;9.80;99.90
19031;DHT22;9648;51.130;13.978;2023-03-22T00:03:35;9.80;99.90
19031;DHT22;9648;51.130;13.978;2023-03-22T00:06:02;9.80;99.90
19031;DHT22;9648;51.130;13.978;2023-03-22T00:08:30;9.80;99.90
19031;DHT22;9648;51.130;13.978;2023-03-22T00:10:59;9.80;99.90
19031;DHT22;9648;51.130;13.978;2023-03-22T00:13:27;9.80;99.90
19031;DHT22;9648;51.130;13.978;2023-03-22T00:15:54;9.80;99.90
19031;DHT22;9648;51.130;13.978;2023-03-22T00:18:22;9.80;99.90
19031;DHT22;9648;51.130;13.978;2023-03-22T00:20:50;9.80;99.90
19031;DHT22;9648;51.130;13.978;2023-03-22T00:23:17;9.80;99.90
19031;DHT22;9648;51.130;13.978;2023-03-22T00:25:45;9.80;99.90
19031;DHT22;9648;51.130;13.978;2023-03-22T00:28:13;9.80;99.90
19031;DHT22;9648;51.130;13.978;2023-03-22T00:30:41;9.80;99.90
19031;DHT22;9648;51.130;13.978;2023-03-22T00:33:08;9.70;99.90
19031;DHT22;9648;51.130;13.978;2023-03-22T00:35:35;9.70;99.90
19031;DHT22;9648;51.130;13.978;2023-03-22T00:38:02;9.70;99.90
19031;DHT22;9648;51.130;13.978;2023-03-22T00:40:38;9.70;99.90
19031;DHT22;9648;51.130;13.978;2023-03-22T00:43:07;9.70;99.90
19031;DHT22;9648;51.130;13.978;2023-03-22T00:45:34;9.70;99.90
19031;DHT22;9648;51.130;13.978;2023-03-22T00:48:02;9.70;99.90
19031;DHT22;9648;51.130;13.978;2023-03-22T00:50:33;9.70;99.90
19031;DHT22;9648;51.130;13.978;2023-03-22T00:52:59;9.70;99.90
19031;DHT22;9648;51.130;13.978;2023-03-22T00:55:26;9.70;99.90
19031;DHT22;9648;51.130;13.978;2023-03-22T00:57:53;9.60;99.90
19031;DHT22;9648;51.130;13.978;2023-03-22T01:00:21;9.60;99.90
19031;DHT22;9648;51.130;13.978;2023-03-22T01:02:48;9.60;99.90
19031;DHT22;9648;51.130;13.978;2023-03-22T01:05:18;9.70;99.90
19031;DHT22;9648;51.130;13.978;2023-03-22T01:07:46;9.60;99.90
19031;DHT22;9648;51.130;13.978;2023-03-22T01:10:15;9.60;99.90
19031;DHT22;9648;51.130;13.978;2023-03-22T01:12:42;9.60;99.90
19031;DHT22;9648;51.130;13.978;2023-03-22T01:15:09;9.60;99.90
19031;DHT22;9648;51.130;13.978;2023-03-22T01:17:38;9.60;99.90
19031;DHT22;9648;51.130;13.978;2023-03-22T01:20:05;9.60;99.90
19031;DHT22;9648;51.130;13.978;2023-03-22T01:22:33;9.60;99.90
19031;DHT22;9648;51.130;13.978;2023-03-22T01:25:00;9.50;99.90
19031;DHT22;9648;51.130;13.978;2023-03-22T01:27:27;9.50;99.90
19031;DHT22;9648;51.130;13.978;2023-03-22T01:29:53;9.40;99.90
19031;DHT22;9648;51.130;13.978;2023-03-22T01:32:20;9.40;99.90
19031;DHT22;9648;51.130;13.978;2023-03-22T01:34:48;9.30;99.90
19031;DHT22;9648;51.130;13.978;2023-03-22T01:37:15;9.30;99.90
19031;DHT22;9648;51.130;13.978;2023-03-22T01:39:42;9.20;99.90
19031;DHT22;9648;51.130;13.978;2023-03-22T01:42:12;9.10;99.90
19031;DHT22;9648;51.130;13.978;2023-03-22T01:44:41;8.90;99.90
19031;DHT22;9648;51.130;13.978;2023-03-22T01:47:09;8.80;99.90
19031;DHT22;9648;51.130;13.978;2023-03-22T01:49:36;8.70;99.90
19031;DHT22;9648;51.130;13.978;2023-03-22T01:52:08;8.60;99.90
19031;DHT22;9648;51.130;13.978;2023-03-22T01:54:40;8.60;99.90
19031;DHT22;9648;51.130;13.978;2023-03-22T01:57:08;8.50;99.90
19031;DHT22;9648;51.130;13.978;2023-03-22T01:59:35;8.50;99.90
19031;DHT22;9648;51.130;13.978;2023-03-22T02:02:02;8.40;99.90
19031;DHT22;9648;51.130;13.978;2023-03-22T02:04:32;8.30;99.90
19031;DHT22;9648;51.130;13.978;2023-03-22T02:07:07;8.20;99.90
19031;DHT22;9648;51.130;13.978;2023-03-22T02:09:34;8.10;99.90
19031;DHT22;9648;51.130;13.978;2023-03-22T02:12:13;8.10;99.90
19031;DHT22;9648;51.130;13.978;2023-03-22T02:14:56;8.00;99.90
19031;DHT22;9648;51.130;13.978;2023-03-22T02:17:32;7.90;99.90
19031;DHT22;9648;51.130;13.978;2023-03-22T02:23:42;7.80;99.90
19031;DHT22;9648;51.130;13.978;2023-03-22T02:26:51;7.70;99.90
19031;DHT22;9648;51.130;13.978;2023-03-22T02:29:34;7.70;99.90
19031;DHT22;9648;51.130;13.978;2023-03-22T02:32:39;7.60;99.90
19031;DHT22;9648;51.130;13.978;2023-03-22T02:35:40;7.50;99.90
19031;DHT22;9648;51.130;13.978;2023-03-22T02:41:10;7.40;99.90
19031;DHT22;9648;51.130;13.978;2023-03-22T02:43:41;7.40;99.90
19031;DHT22;9648;51.130;13.978;2023-03-22T02:46:17;7.30;99.90
19031;DHT22;9648;51.130;13.978;2023-03-22T02:48:50;7.30;99.90
19031;DHT22;9648;51.130;13.978;2023-03-22T02:51:21;7.20;99.90
19031;DHT22;9648;51.130;13.978;2023-03-22T02:53:53;7.20;99.90
19031;DHT22;9648;51.130;13.978;2023-03-22T02:56:25;7.10;99.90
19031;DHT22;9648;51.130;13.978;2023-03-22T02:58:55;7.10;99.90
19031;DHT22;9648;51.130;13.978;2023-03-22T03:01:25;7.00;99.90
19031;DHT22;9648;51.130;13.978;2023-03-22T03:03:57;6.90;99.90
19031;DHT22;9648;51.130;13.978;2023-03-22T03:06:27;6.90;99.90
19031;DHT22;9648;51.130;13.978;2023-03-22T03:08:55;6.90;99.90
19031;DHT22;9648;51.130;13.978;2023-03-22T03:11:28;6.80;99.90
19031;DHT22;9648;51.130;13.978;2023-03-22T03:13:56;6.80;99.90
19031;DHT22;9648;51.130;13.978;2023-03-22T03:16:25;6.70;99.90
19031;DHT22;9648;51.130;13.978;2023-03-22T03:18:57;6.70;99.90
19031;DHT22;9648;51.130;13.978;2023-03-22T03:21:30;6.70;99.90
19031;DHT22;9648;51.130;13.978;2023-03-22T03:24:10;6.70;99.90
19031;DHT22;9648;51.130;13.978;2023-03-22T03:26:47;6.60;99.90
19031;DHT22;9648;51.130;13.978;2023-03-22T03:29:20;6.60;99.90
19031;DHT22;9648;51.130;13.978;2023-03-22T03:31:51;6.60;99.90
19031;DHT22;9648;51.130;13.978;2023-03-22T03:34:23;6.60;99.90
19031;DHT22;9648;51.130;13.978;2023-03-22T03:36:55;6.60;99.90
19031;DHT22;9648;51.130;13.978;2023-03-22T03:39:25;6.50;99.90
19031;DHT22;9648;51.130;13.978;2023-03-22T03:41:55;6.50;99.90
19031;DHT22;9648;51.130;13.978;2023-03-22T03:44:23;6.50;99.90
19031;DHT22;9648;51.130;13.978;2023-03-22T03:46:51;6.50;99.90
19031;DHT22;9648;51.130;13.978;2023-03-22T03:49:21;6.40;99.90
19031;DHT22;9648;51.130;13.978;2023-03-22T03:51:53;6.40;99.90
19031;DHT22;9648;51.130;13.978;2023-03-22T03:54:20;6.40;99.90
19031;DHT22;9648;51.130;13.978;2023-03-22T03:56:47;6.30;99.90
19031;DHT22;9648;51.130;13.978;2023-03-22T03:59:17;6.20;99.90
19031;DHT22;9648;51.130;13.978;2023-03-22T04:01:46;6.20;99.90
19031;DHT22;9648;51.130;13.978;2023-03-22T04:04:17;6.10;99.90
19031;DHT22;9648;51.130;13.978;2023-03-22T04:06:43;6.10;99.90
19031;DHT22;9648;51.130;13.978;2023-03-22T04:09:10;6.10;99.90
19031;DHT22;9648;51.130;13.978;2023-03-22T04:11:37;6.10;99.90
19031;DHT22;9648;51.130;13.978;2023-03-22T04:14:04;6.20;99.90
19031;DHT22;9648;51.130;13.978;2023-03-22T04:16:32;6.10;99.90
19031;DHT22;9648;51.130;13.978;2023-03-22T04:18:58;6.10;99.90
19031;DHT22;9648;51.130;13.978;2023-03-22T04:21:25;6.10;99.90
19031;DHT22;9648;51.130;13.978;2023-03-22T04:23:52;6.10;99.90
19031;DHT22;9648;51.130;13.978;2023-03-22T04:26:20;6.00;99.90
19031;DHT22;9648;51.130;13.978;2023-03-22T04:28:46;6.00;99.90
19031;DHT22;9648;51.130;13.978;2023-03-22T04:31:13;5.90;99.90
19031;DHT22;9648;51.130;13.978;2023-03-22T04:33:41;5.90;99.90
19031;DHT22;9648;51.130;13.978;2023-03-22T04:36:12;5.80;99.90
19031;DHT22;9648;51.130;13.978;2023-03-22T04:38:40;5.80;99.90
19031;DHT22;9648;51.130;13.978;2023-03-22T04:41:07;5.80;99.90
19031;DHT22;9648;51.130;13.978;2023-03-22T04:43:34;5.80;99.90
19031;DHT22;9648;51.130;13.978;2023-03-22T04:46:06;5.70;99.90
19031;DHT22;9648;51.130;13.978;2023-03-22T04:48:35;5.70;99.90
19031;DHT22;9648;51.130;13.978;2023-03-22T04:51:04;5.70;99.90
19031;DHT22;9648;51.130;13.978;2023-03-22T04:53:31;5.70;99.90
19031;DHT22;9648;51.130;13.978;2023-03-22T04:56:08;5.60;99.90
19031;DHT22;9648;51.130;13.978;2023-03-22T04:58:37;5.60;99.90
19031;DHT22;9648;51.130;13.978;2023-03-22T05:01:04;5.60;99.90
19031;DHT22;9648;51.130;13.978;2023-03-22T05:03:32;5.60;99.90
19031;DHT22;9648;51.130;13.978;2023-03-22T05:06:00;5.70;99.90
19031;DHT22;9648;51.130;13.978;2023-03-22T05:08:29;5.70;99.90
19031;DHT22;9648;51.130;13.978;2023-03-22T05:10:58;5.70;99.90
19031;DHT22;9648;51.130;13.978;2023-03-22T05:13:33;5.70;99.90
19031;DHT22;9648;51.130;13.978;2023-03-22T05:16:00;5.70;99.90
19031;DHT22;9648;51.130;13.978;2023-03-22T05:18:27;5.70;99.90
19031;DHT22;9648;51.130;13.978;2023-03-22T05:20:55;5.70;99.90
19031;DHT22;9648;51.130;13.978;2023-03-22T05:23:22;5.70;99.90
19031;DHT22;9648;51.130;13.978;2023-03-22T05:25:52;5.70;99.90
19031;DHT22;9648;51.130;13.978;2023-03-22T05:28:19;5.70;99.90
19031;DHT22;9648;51.130;13.978;2023-03-22T05:30:47;5.70;99.90
19031;DHT22;9648;51.130;13.978;2023-03-22T05:33:15;5.70;99.90
19031;DHT22;9648;51.130;13.978;2023-03-22T05:35:47;5.70;99.90
19031;DHT22;9648;51.130;13.978;2023-03-22T05:38:15;5.70;99.90
19031;DHT22;9648;51.130;13.978;2023-03-22T05:40:42;5.80;99.90
19031;DHT22;9648;51.130;13.978;2023-03-22T05:43:10;5.80;99.90
19031;DHT22;9648;51.130;13.978;2023-03-22T05:45:37;5.80;99.90
19031;DHT22;9648;51.130;13.978;2023-03-22T05:48:04;5.80;99.90
19031;DHT22;9648;51.130;13.978;2023-03-22T05:50:31;5.80;99.90
19031;DHT22;9648;51.130;13.978;2023-03-22T05:52:58;5.90;99.90
19031;DHT22;9648;51.130;13.978;2023-03-22T05:55:25;5.90;99.90
19031;DHT22;9648;51.130;13.978;2023-03-22T05:57:52;6.00;99.90
19031;DHT22;9648;51.130;13.978;2023-03-22T06:00:21;6.10;99.90
19031;DHT22;9648;51.130;13.978;2023-03-22T06:02:49;6.20;99.90
19031;DHT22;9648;51.130;13.978;2023-03-22T06:05:21;6.30;99.90
19031;DHT22;9648;51.130;13.978;2023-03-22T06:07:47;6.40;99.90
19031;DHT22;9648;51.130;13.978;2023-03-22T06:10:15;6.60;99.90
19031;DHT22;9648;51.130;13.978;2023-03-22T06:12:43;6.70;99.90
19031;DHT22;9648;51.130;13.978;2023-03-22T06:15:10;6.80;99.90
19031;DHT22;9648;51.130;13.978;2023-03-22T06:17:38;6.90;99.90
19031;DHT22;9648;51.130;13.978;2023-03-22T06:20:07;7.00;99.90
19031;DHT22;9648;51.130;13.978;2023-03-22T06:22:37;7.10;99.90
19031;DHT22;9648;51.130;13.978;2023-03-22T06:25:05;7.20;99.90
19031;DHT22;9648;51.130;13.978;2023-03-22T06:27:33;7.40;99.90
19031;DHT22;9648;51.130;13.978;2023-03-22T06:30:00;7.50;99.90
19031;DHT22;9648;51.130;13.978;2023-03-22T06:32:27;7.70;99.90
19031;DHT22;9648;51.130;13.978;2023-03-22T06:34:55;7.90;99.90
19031;DHT22;9648;51.130;13.978;2023-03-22T06:37:24;7.90;99.90
19031;DHT22;9648;51.130;13.978;2023-03-22T06:39:51;8.10;99.90
19031;DHT22;9648;51.130;13.978;2023-03-22T06:42:17;8.20;99.90
19031;DHT22;9648;51.130;13.978;2023-03-22T06:44:44;8.30;99.90
19031;DHT22;9648;51.130;13.978;2023-03-22T06:47:11;8.50;99.90
19031;DHT22;9648;51.130;13.978;2023-03-22T06:49:41;8.60;99.90
19031;DHT22;9648;51.130;13.978;2023-03-22T06:52:09;8.70;99.90
19031;DHT22;9648;51.130;13.978;2023-03-22T06:54:36;8.80;99.90
19031;DHT22;9648;51.130;13.978;2023-03-22T06:57:03;8.90;99.90
19031;DHT22;9648;51.130;13.978;2023-03-22T06:59:29;9.00;99.90
19031;DHT22;9648;51.130;13.978;2023-03-22T07:01:56;9.10;99.90
19031;DHT22;9648;51.130;13.978;2023-03-22T07:04:23;9.20;99.90
19031;DHT22;9648;51.130;13.978;2023-03-22T07:06:50;9.30;99.90
19031;DHT22;9648;51.130;13.978;2023-03-22T07:09:18;9.40;99.90
19031;DHT22;9648;51.130;13.978;2023-03-22T07:11:45;9.50;99.90
19031;DHT22;9648;51.130;13.978;2023-03-22T07:14:12;9.60;99.90
19031;DHT22;9648;51.130;13.978;2023-03-22T07:16:39;9.70;99.90
19031;DHT22;9648;51.130;13.978;2023-03-22T07:19:05;9.80;99.90
19031;DHT22;9648;51.130;13.978;2023-03-22T07:21:32;9.90;99.90
19031;DHT22;9648;51.130;13.978;2023-03-22T07:24:01;10.00;99.90
19031;DHT22;9648;51.130;13.978;2023-03-22T07:26:30;10.10;99.90
19031;DHT22;9648;51.130;13.978;2023-03-22T07:28:56;10.20;99.90
19031;DHT22;9648;51.130;13.978;2023-03-22T07:31:23;10.40;99.90
19031;DHT22;9648;51.130;13.978;2023-03-22T07:33:50;10.40;99.90
19031;DHT22;9648;51.130;13.978;2023-03-22T07:36:17;10.50;99.90
19031;DHT22;9648;51.130;13.978;2023-03-22T07:38:49;10.50;99.90
19031;DHT22;9648;51.130;13.978;2023-03-22T07:41:15;10.60;99.90
19031;DHT22;9648;51.130;13.978;2023-03-22T07:43:44;10.60;99.90
19031;DHT22;9648;51.130;13.978;2023-03-22T07:46:11;10.50;99.90
19031;DHT22;9648;51.130;13.978;2023-03-22T07:48:38;10.50;99.90
19031;DHT22;9648;51.130;13.978;2023-03-22T07:51:05;10.60;99.90
19031;DHT22;9648;51.130;13.978;2023-03-22T07:53:32;10.60;99.90
19031;DHT22;9648;51.130;13.978;2023-03-22T07:55:59;10.70;99.90
19031;DHT22;9648;51.130;13.978;2023-03-22T07:58:26;10.70;99.90
19031;DHT22;9648;51.130;13.978;2023-03-22T08:00:54;10.80;99.90
19031;DHT22;9648;51.130;13.978;2023-03-22T08:03:20;10.90;99.90
19031;DHT22;9648;51.130;13.978;2023-03-22T08:05:47;11.00;99.90
19031;DHT22;9648;51.130;13.978;2023-03-22T08:08:16;11.10;99.90
19031;DHT22;9648;51.130;13.978;2023-03-22T08:10:47;11.10;99.90
19031;DHT22;9648;51.130;13.978;2023-03-22T08:13:14;11.20;99.90
19031;DHT22;9648;51.130;13.978;2023-03-22T08:15:41;11.30;99.90
19031;DHT22;9648;51.130;13.978;2023-03-22T08:18:09;11.40;99.90
19031;DHT22;9648;51.130;13.978;2023-03-22T08:20:36;11.50;99.90
19031;DHT22;9648;51.130;13.978;2023-03-22T08:23:03;11.50;99.90
19031;DHT22;9648;51.130;13.978;2023-03-22T08:25:32;11.70;99.90
19031;DHT22;9648;51.130;13.978;2023-03-22T08:27:59;11.90;99.90
19031;DHT22;9648;51.130;13.978;2023-03-22T08:30:26;12.00;99.90
19031;DHT22;9648;51.130;13.978;2023-03-22T08:32:53;12.10;99.90
19031;DHT22;9648;51.130;13.978;2023-03-22T08:35:21;12.30;99.90
19031;DHT22;9648;51.130;13.978;2023-03-22T08:37:49;12.30;99.90
19031;DHT22;9648;51.130;13.978;2023-03-22T08:40:18;12.40;99.90
19031;DHT22;9648;51.130;13.978;2023-03-22T08:42:45;12.40;99.90
19031;DHT22;9648;51.130;13.978;2023-03-22T08:45:11;12.50;99.90
19031;DHT22;9648;51.130;13.978;2023-03-22T08:47:38;12.60;99.90
19031;DHT22;9648;51.130;13.978;2023-03-22T08:50:06;12.70;99.90
19031;DHT22;9648;51.130;13.978;2023-03-22T08:52:35;12.80;99.90
19031;DHT22;9648;51.130;13.978;2023-03-22T08:55:02;12.90;99.90
19031;DHT22;9648;51.130;13.978;2023-03-22T08:57:29;13.00;99.90
19031;DHT22;9648;51.130;13.978;2023-03-22T08:59:56;13.20;99.90
19031;DHT22;9648;51.130;13.978;2023-03-22T09:02:23;13.40;99.90
19031;DHT22;9648;51.130;13.978;2023-03-22T09:04:50;13.50;99.90
19031;DHT22;9648;51.130;13.978;2023-03-22T09:07:17;13.60;99.90
19031;DHT22;9648;51.130;13.978;2023-03-22T09:09:46;13.70;99.90
19031;DHT22;9648;51.130;13.978;2023-03-22T09:12:13;13.80;99.90
19031;DHT22;9648;51.130;13.978;2023-03-22T09:14:40;13.90;99.90
19031;DHT22;9648;51.130;13.978;2023-03-22T09:17:07;14.10;99.90
19031;DHT22;9648;51.130;13.978;2023-03-22T09:19:34;14.10;99.90
19031;DHT22;9648;51.130;13.978;2023-03-22T09:22:00;14.10;99.90
19031;DHT22;9648;51.130;13.978;2023-03-22T09:24:27;14.10;99.90
19031;DHT22;9648;51.130;13.978;2023-03-22T09:26:55;14.10;99.90
19031;DHT22;9648;51.130;13.978;2023-03-22T09:29:23;14.20;99.90
19031;DHT22;9648;51.130;13.978;2023-03-22T09:31:50;14.20;99.90
19031;DHT22;9648;51.130;13.978;2023-03-22T09:34:18;14.20;99.90
19031;DHT22;9648;51.130;13.978;2023-03-22T09:36:44;14.30;99.90
19031;DHT22;9648;51.130;13.978;2023-03-22T09:39:12;14.30;99.90
19031;DHT22;9648;51.130;13.978;2023-03-22T09:41:44;14.40;99.90
19031;DHT22;9648;51.130;13.978;2023-03-22T09:44:20;14.50;99.90
19031;DHT22;9648;51.130;13.978;2023-03-22T09:46:49;14.60;99.90
19031;DHT22;9648;51.130;13.978;2023-03-22T09:49:20;14.50;99.90
19031;DHT22;9648;51.130;13.978;2023-03-22T09:51:50;14.60;99.90
19031;DHT22;9648;51.130;13.978;2023-03-22T09:54:19;14.70;99.90
19031;DHT22;9648;51.130;13.978;2023-03-22T09:56:59;14.80;99.90
19031;DHT22;9648;51.130;13.978;2023-03-22T09:59:35;14.90;99.90
19031;DHT22;9648;51.130;13.978;2023-03-22T10:02:26;15.00;99.90
19031;DHT22;9648;51.130;13.978;2023-03-22T10:05:03;15.20;99.90
19031;DHT22;9648;51.130;13.978;2023-03-22T10:07:41;15.40;99.90
19031;DHT22;9648;51.130;13.978;2023-03-22T10:10:13;15.40;99.90
19031;DHT22;9648;51.130;13.978;2023-03-22T10:12:47;15.50;99.90
19031;DHT22;9648;51.130;13.978;2023-03-22T10:15:18;15.50;99.90
19031;DHT22;9648;51.130;13.978;2023-03-22T10:17:49;15.50;99.90
19031;DHT22;9648;51.130;13.978;2023-03-22T10:20:26;15.40;99.90
19031;DHT22;9648;51.130;13.978;2023-03-22T10:22:57;15.20;99.90
19031;DHT22;9648;51.130;13.978;2023-03-22T10:25:32;15.20;99.90
19031;DHT22;9648;51.130;13.978;2023-03-22T10:27:59;15.30;99.90
19031;DHT22;9648;51.130;13.978;2023-03-22T10:30:29;15.40;99.90
19031;DHT22;9648;51.130;13.978;2023-03-22T10:33:01;15.30;99.90
19031;DHT22;9648;51.130;13.978;2023-03-22T10:35:29;15.30;99.90
19031;DHT22;9648;51.130;13.978;2023-03-22T10:37:57;15.30;99.90
19031;DHT22;9648;51.130;13.978;2023-03-22T10:40:28;15.40;99.90
19031;DHT22;9648;51.130;13.978;2023-03-22T10:42:59;15.40;99.90
19031;DHT22;9648;51.130;13.978;2023-03-22T10:45:32;15.40;99.90
19031;DHT22;9648;51.130;13.978;2023-03-22T10:48:03;15.30;99.90
19031;DHT22;9648;51.130;13.978;2023-03-22T10:50:34;15.30;99.90
19031;DHT22;9648;51.130;13.978;2023-03-22T10:53:10;15.40;99.90
19031;DHT22;9648;51.130;13.978;2023-03-22T10:55:39;15.40;99.90
19031;DHT22;9648;51.130;13.978;2023-03-22T10:58:12;15.50;99.90
19031;DHT22;9648;51.130;13.978;2023-03-22T11:00:44;15.40;99.90
19031;DHT22;9648;51.130;13.978;2023-03-22T11:03:25;15.40;99.90
19031;DHT22;9648;51.130;13.978;2023-03-22T11:06:00;15.70;99.90
19031;DHT22;9648;51.130;13.978;2023-03-22T11:08:27;15.70;97.30
19031;DHT22;9648;51.130;13.978;2023-03-22T11:10:54;15.70;97.30
19031;DHT22;9648;51.130;13.978;2023-03-22T11:13:25;15.90;97.70
19031;DHT22;9648;51.130;13.978;2023-03-22T11:15:57;15.80;99.90
19031;DHT22;9648;51.130;13.978;2023-03-22T11:18:29;15.70;97.50
19031;DHT22;9648;51.130;13.978;2023-03-22T11:20:59;15.70;99.90
19031;DHT22;9648;51.130;13.978;2023-03-22T11:23:26;16.00;99.90
19031;DHT22;9648;51.130;13.978;2023-03-22T11:25:59;16.30;98.70
19031;DHT22;9648;51.130;13.978;2023-03-22T11:28:34;16.40;95.80
19031;DHT22;9648;51.130;13.978;2023-03-22T11:31:06;16.40;99.10
19031;DHT22;9648;51.130;13.978;2023-03-22T11:33:33;16.40;95.10
19031;DHT22;9648;51.130;13.978;2023-03-22T11:36:03;16.30;95.30
19031;DHT22;9648;51.130;13.978;2023-03-22T11:38:35;16.10;93.40
19031;DHT22;9648;51.130;13.978;2023-03-22T11:41:05;16.10;97.80
19031;DHT22;9648;51.130;13.978;2023-03-22T11:43:34;16.10;95.50
19031;DHT22;9648;51.130;13.978;2023-03-22T11:46:06;16.10;99.20
19031;DHT22;9648;51.130;13.978;2023-03-22T11:48:34;16.30;96.00
19031;DHT22;9648;51.130;13.978;2023-03-22T11:51:08;16.40;95.40
19031;DHT22;9648;51.130;13.978;2023-03-22T11:53:38;16.40;96.60
19031;DHT22;9648;51.130;13.978;2023-03-22T11:56:09;16.50;98.70
19031;DHT22;9648;51.130;13.978;2023-03-22T11:58:54;16.70;99.40
19031;DHT22;9648;51.130;13.978;2023-03-22T12:01:33;16.80;96.40
19031;DHT22;9648;51.130;13.978;2023-03-22T12:04:08;16.90;96.30
19031;DHT22;9648;51.130;13.978;2023-03-22T12:06:38;16.90;93.40
19031;DHT22;9648;51.130;13.978;2023-03-22T12:09:11;17.00;96.70
19031;DHT22;9648;51.130;13.978;2023-03-22T12:11:46;17.20;94.60
19031;DHT22;9648;51.130;13.978;2023-03-22T12:14:18;17.30;92.10
19031;DHT22;9648;51.130;13.978;2023-03-22T12:16:51;17.40;93.50
19031;DHT22;9648;51.130;13.978;2023-03-22T12:19:28;17.40;90.60
19031;DHT22;9648;51.130;13.978;2023-03-22T12:22:09;17.40;92.40
19031;DHT22;9648;51.130;13.978;2023-03-22T12:24:39;17.40;91.40
19031;DHT22;9648;51.130;13.978;2023-03-22T12:27:14;17.40;90.40
19031;DHT22;9648;51.130;13.978;2023-03-22T12:29:44;17.40;86.80
19031;DHT22;9648;51.130;13.978;2023-03-22T12:32:18;17.40;87.40
19031;DHT22;9648;51.130;13.978;2023-03-22T12:34:47;17.40;89.40
19031;DHT22;9648;51.130;13.978;2023-03-22T12:37:18;17.50;86.60
19031;DHT22;9648;51.130;13.978;2023-03-22T12:39:49;17.60;91.20
19031;DHT22;9648;51.130;13.978;2023-03-22T12:42:20;17.70;82.90
19031;DHT22;9648;51.130;13.978;2023-03-22T12:44:49;17.60;79.20
19031;DHT22;9648;51.130;13.978;2023-03-22T12:47:21;17.60;85.20
19031;DHT22;9648;51.130;13.978;2023-03-22T12:49:53;17.60;80.40
19031;DHT22;9648;51.130;13.978;2023-03-22T12:52:25;17.70;80.00
19031;DHT22;9648;51.130;13.978;2023-03-22T12:54:57;17.70;79.20
19031;DHT22;9648;51.130;13.978;2023-03-22T12:57:26;17.70;76.80
19031;DHT22;9648;51.130;13.978;2023-03-22T12:59:55;17.80;83.20
19031;DHT22;9648;51.130;13.978;2023-03-22T13:02:26;17.90;82.20
19031;DHT22;9648;51.130;13.978;2023-03-22T13:04:56;18.00;81.90
19031;DHT22;9648;51.130;13.978;2023-03-22T13:07:37;18.20;78.60
19031;DHT22;9648;51.130;13.978;2023-03-22T13:13:45;18.00;77.20
19031;DHT22;9648;51.130;13.978;2023-03-22T13:16:21;17.90;79.00
19031;DHT22;9648;51.130;13.978;2023-03-22T13:19:02;17.80;73.10
19031;DHT22;9648;51.130;13.978;2023-03-22T13:21:31;17.80;74.00
19031;DHT22;9648;51.130;13.978;2023-03-22T13:24:01;17.80;68.30
19031;DHT22;9648;51.130;13.978;2023-03-22T13:26:46;17.70;66.90
19031;DHT22;9648;51.130;13.978;2023-03-22T13:29:17;17.70;68.40
19031;DHT22;9648;51.130;13.978;2023-03-22T13:31:52;17.80;72.60
19031;DHT22;9648;51.130;13.978;2023-03-22T13:34:30;17.90;68.40
19031;DHT22;9648;51.130;13.978;2023-03-22T13:36:58;18.10;68.80
19031;DHT22;9648;51.130;13.978;2023-03-22T13:39:31;18.10;68.20
19031;DHT22;9648;51.130;13.978;2023-03-22T13:42:02;18.00;67.90
19031;DHT22;9648;51.130;13.978;2023-03-22T13:44:35;18.10;66.20
19031;DHT22;9648;51.130;13.978;2023-03-22T13:47:08;18.00;64.70
19031;DHT22;9648;51.130;13.978;2023-03-22T13:49:45;18.10;70.20
19031;DHT22;9648;51.130;13.978;2023-03-22T13:52:26;18.00;65.70
19031;DHT22;9648;51.130;13.978;2023-03-22T13:54:55;18.00;66.60
19031;DHT22;9648;51.130;13.978;2023-03-22T13:57:49;18.00;65.40
19031;DHT22;9648;51.130;13.978;2023-03-22T14:00:52;18.00;67.90
19031;DHT22;9648;51.130;13.978;2023-03-22T14:03:27;18.10;69.30
19031;DHT22;9648;51.130;13.978;2023-03-22T14:06:17;18.00;66.50
19031;DHT22;9648;51.130;13.978;2023-03-22T14:08:47;17.90;64.80
19031;DHT22;9648;51.130;13.978;2023-03-22T14:11:20;17.80;66.70
19031;DHT22;9648;51.130;13.978;2023-03-22T14:13:51;17.80;66.40
19031;DHT22;9648;51.130;13.978;2023-03-22T14:16:32;17.70;65.80
19031;DHT22;9648;51.130;13.978;2023-03-22T14:19:02;17.60;66.40
19031;DHT22;9648;51.130;13.978;2023-03-22T14:21:34;17.70;67.60
19031;DHT22;9648;51.130;13.978;2023-03-22T14:24:04;17.70;68.00
19031;DHT22;9648;51.130;13.978;2023-03-22T14:26:36;17.70;65.90
19031;DHT22;9648;51.130;13.978;2023-03-22T14:29:06;17.60;65.10
19031;DHT22;9648;51.130;13.978;2023-03-22T14:31:33;17.40;65.20
19031;DHT22;9648;51.130;13.978;2023-03-22T14:34:05;17.20;64.70
19031;DHT22;9648;51.130;13.978;2023-03-22T14:36:38;17.10;65.10
19031;DHT22;9648;51.130;13.978;2023-03-22T14:39:11;17.00;66.50
19031;DHT22;9648;51.130;13.978;2023-03-22T14:42:00;17.00;68.30
19031;DHT22;9648;51.130;13.978;2023-03-22T14:44:28;17.00;67.20
19031;DHT22;9648;51.130;13.978;2023-03-22T14:47:02;17.00;67.00
19031;DHT22;9648;51.130;13.978;2023-03-22T14:49:39;17.00;68.20
19031;DHT22;9648;51.130;13.978;2023-03-22T14:52:12;17.00;69.00
19031;DHT22;9648;51.130;13.978;2023-03-22T14:54:40;17.00;68.70
19031;DHT22;9648;51.130;13.978;2023-03-22T14:57:11;17.00;72.20
19031;DHT22;9648;51.130;13.978;2023-03-22T14:59:39;17.00;79.10
19031;DHT22;9648;51.130;13.978;2023-03-22T15:02:19;17.10;82.80
19031;DHT22;9648;51.130;13.978;2023-03-22T15:04:46;17.10;84.40
19031;DHT22;9648;51.130;13.978;2023-03-22T15:07:17;17.20;84.60
19031;DHT22;9648;51.130;13.978;2023-03-22T15:09:44;17.20;89.80
19031;DHT22;9648;51.130;13.978;2023-03-22T15:12:11;17.20;86.10
19031;DHT22;9648;51.130;13.978;2023-03-22T15:14:39;17.30;84.40
19031;DHT22;9648;51.130;13.978;2023-03-22T15:17:08;17.50;83.20
19031;DHT22;9648;51.130;13.978;2023-03-22T15:19:40;17.60;80.80
19031;DHT22;9648;51.130;13.978;2023-03-22T15:22:12;17.70;81.20
19031;DHT22;9648;51.130;13.978;2023-03-22T15:24:48;17.80;82.10
19031;DHT22;9648;51.130;13.978;2023-03-22T15:27:16;17.90;76.20
19031;DHT22;9648;51.130;13.978;2023-03-22T15:29:44;17.90;73.20
19031;DHT22;9648;51.130;13.978;2023-03-22T15:32:15;17.90;75.30
19031;DHT22;9648;51.130;13.978;2023-03-22T15:34:42;18.00;77.10
19031;DHT22;9648;51.130;13.978;2023-03-22T15:37:12;18.00;75.30
19031;DHT22;9648;51.130;13.978;2023-03-22T15:39:41;18.00;74.50
19031;DHT22;9648;51.130;13.978;2023-03-22T15:42:14;18.00;76.50
19031;DHT22;9648;51.130;13.978;2023-03-22T15:44:48;18.00;74.20
19031;DHT22;9648;51.130;13.978;2023-03-22T15:47:16;18.00;71.60
19031;DHT22;9648;51.130;13.978;2023-03-22T15:49:46;18.00;70.10
19031;DHT22;9648;51.130;13.978;2023-03-22T15:52:17;18.00;70.20
19031;DHT22;9648;51.130;13.978;2023-03-22T15:54:47;18.00;68.40
19031;DHT22;9648;51.130;13.978;2023-03-22T15:57:21;17.90;68.60
19031;DHT22;9648;51.130;13.978;2023-03-22T15:59:53;17.90;65.40
19031;DHT22;9648;51.130;13.978;2023-03-22T16:02:26;18.00;65.10
19031;DHT22;9648;51.130;13.978;2023-03-22T16:04:54;17.90;66.80
19031;DHT22;9648;51.130;13.978;2023-03-22T16:07:22;17.80;66.50